createdAt,value
2019-01-02T00:00:19.591Z,4.18
2019-01-02T00:02:48.909Z,4.18
2019-01-02T00:05:17.386Z,4.17
2019-01-02T00:07:46.107Z,4.17
2019-01-02T00:10:14.896Z,4.09
2019-01-02T00:12:43.394Z,4.03
2019-01-02T00:15:12.246Z,4.07
2019-01-02T00:17:40.701Z,4.14
2019-01-02T00:20:13.237Z,4.15
2019-01-02T00:22:41.663Z,4.07
2019-01-02T00:25:10.316Z,4.15
2019-01-02T00:27:38.751Z,4.12
2019-01-02T00:30:09.526Z,4.13
2019-01-02T00:32:38.797Z,4.10
2019-01-02T00:35:08.584Z,4.20
2019-01-02T00:37:41.098Z,4.23
2019-01-02T00:40:11.984Z,4.20
2019-01-02T00:42:40.770Z,4.21
2019-01-02T00:45:09.483Z,4.16
2019-01-02T00:47:38.294Z,4.18
2019-01-02T00:50:10.135Z,4.17
2019-01-02T00:52:38.935Z,4.20
2019-01-02T00:55:08.192Z,4.21
2019-01-02T00:57:37.179Z,4.26
2019-01-02T01:00:20.089Z,4.32
2019-01-02T01:02:48.770Z,4.24
2019-01-02T01:05:17.197Z,4.20
2019-01-02T01:07:48.543Z,4.28
2019-01-02T01:10:17.953Z,4.23
2019-01-02T01:12:46.958Z,4.17
2019-01-02T01:15:15.428Z,4.19
2019-01-02T01:17:44.170Z,4.19
2019-01-02T01:20:15.877Z,4.22
2019-01-02T01:22:44.361Z,4.15
2019-01-02T01:25:12.959Z,4.20
2019-01-02T01:27:41.418Z,4.17
2019-01-02T01:30:11.348Z,4.20
2019-01-02T01:32:39.971Z,4.16
2019-01-02T01:35:13.713Z,4.20
2019-01-02T01:37:45.696Z,4.17
2019-01-02T01:40:14.608Z,4.24
2019-01-02T01:42:43.313Z,4.27
2019-01-02T01:45:11.884Z,4.22
2019-01-02T01:47:40.508Z,4.23
2019-01-02T01:50:10.430Z,4.26
2019-01-02T01:52:38.915Z,4.22
2019-01-02T01:55:09.817Z,4.25
2019-01-02T01:57:38.549Z,4.19
2019-01-02T02:00:12.107Z,4.22
2019-01-02T02:02:40.603Z,4.17
2019-01-02T02:05:09.994Z,4.18
2019-01-02T02:07:38.563Z,4.20
2019-01-02T02:10:13.339Z,4.15
2019-01-02T02:12:41.830Z,4.12
2019-01-02T02:15:11.251Z,4.14
2019-01-02T02:17:41.175Z,4.11
2019-01-02T02:20:11.971Z,4.10
2019-01-02T02:22:40.833Z,4.12
2019-01-02T02:25:12.397Z,4.10
2019-01-02T02:27:40.975Z,4.14
2019-01-02T02:30:14.696Z,4.10
2019-01-02T02:32:44.318Z,4.13
2019-01-02T02:35:13.218Z,4.16
2019-01-02T02:37:42.045Z,4.12
2019-01-02T02:40:13.402Z,4.11
2019-01-02T02:42:41.878Z,4.09
2019-01-02T02:45:12.620Z,4.10
2019-01-02T02:47:41.365Z,4.10
2019-01-02T02:50:12.750Z,4.09
2019-01-02T02:52:41.255Z,4.11
2019-01-02T02:55:12.551Z,4.06
2019-01-02T02:57:41.056Z,4.09
2019-01-02T03:00:12.470Z,4.03
2019-01-02T03:02:40.869Z,4.08
2019-01-02T03:05:11.170Z,4.01
2019-01-02T03:07:40.588Z,3.97
2019-01-02T03:10:12.299Z,3.95
2019-01-02T03:12:41.168Z,4.03
2019-01-02T03:15:11.263Z,4.04
2019-01-02T03:17:40.400Z,4.04
2019-01-02T03:20:10.996Z,3.99
2019-01-02T03:22:39.965Z,4.01
2019-01-02T03:25:10.795Z,4.02
2019-01-02T03:27:39.749Z,4.01
2019-01-02T03:30:11.841Z,4.00
2019-01-02T03:32:40.868Z,3.99
2019-01-02T03:35:09.756Z,4.00
2019-01-02T03:37:38.257Z,3.95
2019-01-02T03:40:09.821Z,3.94
2019-01-02T03:42:38.180Z,3.91
2019-01-02T03:45:09.607Z,3.86
2019-01-02T03:47:38.058Z,3.85
2019-01-02T03:50:12.061Z,3.86
2019-01-02T03:52:40.578Z,3.82
2019-01-02T03:55:10.391Z,3.82
2019-01-02T03:57:39.074Z,3.70
2019-01-02T04:00:19.571Z,3.75
2019-01-02T04:02:48.136Z,3.75
2019-01-02T04:05:19.819Z,3.80
2019-01-02T04:07:57.722Z,3.68
2019-01-02T04:10:27.922Z,3.66
2019-01-02T04:12:56.607Z,3.61
2019-01-02T04:15:26.370Z,3.65
2019-01-02T04:17:55.089Z,3.61
2019-01-02T04:20:23.588Z,3.67
2019-01-02T04:22:52.663Z,3.70
2019-01-02T04:25:21.049Z,3.70
2019-01-02T04:27:49.765Z,3.70
2019-01-02T04:30:18.149Z,3.68
2019-01-02T04:32:46.493Z,3.71
2019-01-02T04:35:14.952Z,3.66
2019-01-02T04:37:43.450Z,3.65
2019-01-02T04:40:13.248Z,3.68
2019-01-02T04:42:41.951Z,3.60
2019-01-02T04:45:11.285Z,3.61
2019-01-02T04:47:40.023Z,3.58
2019-01-02T04:50:14.414Z,3.52
2019-01-02T04:52:42.977Z,3.47
2019-01-02T04:55:11.480Z,3.35
2019-01-02T04:57:39.895Z,3.29
2019-01-02T05:00:11.592Z,3.25
2019-01-02T05:02:40.081Z,3.11
2019-01-02T05:05:08.602Z,3.17
2019-01-02T05:07:37.057Z,3.06
2019-01-02T05:10:08.524Z,3.13
2019-01-02T05:12:36.980Z,3.17
2019-01-02T05:15:07.669Z,2.96
2019-01-02T05:17:36.079Z,2.99
2019-01-02T05:20:07.053Z,2.89
2019-01-02T05:22:35.529Z,2.89
2019-01-02T05:25:04.377Z,2.90
2019-01-02T05:27:32.721Z,2.85
2019-01-02T05:30:01.176Z,2.90
2019-01-02T05:32:29.647Z,2.82
2019-01-02T05:34:57.993Z,2.75
2019-01-02T05:37:26.390Z,2.76
2019-01-02T05:39:54.765Z,2.78
2019-01-02T05:42:23.231Z,2.75
2019-01-02T05:44:51.605Z,2.75
2019-01-02T05:47:20.152Z,2.76
2019-01-02T05:49:48.515Z,2.72
2019-01-02T05:52:17.128Z,2.83
2019-01-02T05:54:45.555Z,2.77
2019-01-02T05:57:13.918Z,2.80
2019-01-02T05:59:42.656Z,2.80
2019-01-02T06:02:11.038Z,2.85
2019-01-02T06:04:39.402Z,2.87
2019-01-02T06:07:07.870Z,2.89
2019-01-02T06:09:36.317Z,2.92
2019-01-02T06:12:04.710Z,2.93
2019-01-02T06:14:33.078Z,2.91
2019-01-02T06:17:01.467Z,2.93
2019-01-02T06:19:30.103Z,2.94
2019-01-02T06:21:58.978Z,2.89
2019-01-02T06:24:27.906Z,2.88
2019-01-02T06:26:56.862Z,2.88
2019-01-02T06:29:28.818Z,2.91
2019-01-02T06:31:57.867Z,2.90
2019-01-02T06:34:27.007Z,2.88
2019-01-02T06:36:56.128Z,2.84
2019-01-02T06:39:26.929Z,2.85
2019-01-02T06:41:56.245Z,2.85
2019-01-02T06:44:25.307Z,2.80
2019-01-02T06:46:53.792Z,2.82
2019-01-02T06:49:23.975Z,2.77
2019-01-02T06:51:52.475Z,2.86
2019-01-02T06:54:23.143Z,2.82
2019-01-02T06:56:51.636Z,2.76
2019-01-02T06:59:20.034Z,2.85
2019-01-02T07:01:48.525Z,2.82
2019-01-02T07:04:16.921Z,2.81
2019-01-02T07:06:45.296Z,2.90
2019-01-02T07:09:13.758Z,2.81
2019-01-02T07:11:43.816Z,2.77
2019-01-02T07:14:12.204Z,2.82
2019-01-02T07:16:40.568Z,2.78
2019-01-02T07:19:09.029Z,2.76
2019-01-02T07:21:37.394Z,2.76
2019-01-02T07:24:05.905Z,2.46
2019-01-02T07:26:34.271Z,2.58
2019-01-02T07:29:02.745Z,2.47
2019-01-02T07:31:31.102Z,2.37
2019-01-02T07:34:01.708Z,2.31
2019-01-02T07:39:45.030Z,2.36
2019-01-02T07:42:31.974Z,2.38
2019-01-02T07:45:12.820Z,2.18
2019-01-02T07:48:00.637Z,2.39
2019-01-02T07:51:00.118Z,2.46
2019-01-02T07:53:50.227Z,2.54
2019-01-02T07:56:36.465Z,2.24
2019-01-02T07:59:29.362Z,2.40
2019-01-02T08:02:09.749Z,2.42
2019-01-02T08:04:59.336Z,2.73
2019-01-02T08:07:56.802Z,2.76
2019-01-02T08:10:44.882Z,2.71
2019-01-02T08:13:25.379Z,2.84
2019-01-02T08:16:16.550Z,2.91
2019-01-02T08:18:59.902Z,2.79
2019-01-02T08:22:03.413Z,2.76
2019-01-02T08:25:00.691Z,2.71
2019-01-02T08:27:41.274Z,2.85
2019-01-02T08:30:44.784Z,3.00
2019-01-02T08:33:25.037Z,3.13
2019-01-02T08:35:56.605Z,3.06
2019-01-02T08:39:01.284Z,3.15
2019-01-02T08:41:59.986Z,3.31
2019-01-02T08:44:51.069Z,3.30
2019-01-02T08:47:48.413Z,3.32
2019-01-02T08:50:20.069Z,3.36
2019-01-02T08:52:57.273Z,3.36
2019-01-02T08:55:49.456Z,3.42
2019-01-02T08:58:32.510Z,3.51
2019-01-02T09:01:20.694Z,3.52
2019-01-02T09:04:11.678Z,3.55
2019-01-02T09:06:57.999Z,3.53
2019-01-02T09:09:49.183Z,3.61
2019-01-02T09:12:40.456Z,3.67
2019-01-02T09:15:33.309Z,3.68
2019-01-02T09:18:39.610Z,3.77
2019-01-02T09:21:35.354Z,3.73
2019-01-02T09:24:26.264Z,3.74
2019-01-02T09:27:00.478Z,3.79
2019-01-02T09:29:32.042Z,3.81
2019-01-02T09:32:21.594Z,3.85
2019-01-02T09:35:11.172Z,3.85
2019-01-02T09:38:04.764Z,3.94
2019-01-02T09:40:36.445Z,3.97
2019-01-02T09:43:17.123Z,3.99
2019-01-02T09:46:10.702Z,3.99
2019-01-02T09:48:54.259Z,4.00
2019-01-02T09:51:59.291Z,4.07
2019-01-02T09:54:45.984Z,4.04
2019-01-02T09:57:52.396Z,4.07
2019-01-02T10:00:32.186Z,4.65
2019-01-02T10:03:37.557Z,4.10
2019-01-02T10:06:09.275Z,4.05
2019-01-02T10:08:59.640Z,3.99
2019-01-02T10:11:33.926Z,4.07
2019-01-02T10:14:24.979Z,4.02
2019-01-02T10:17:28.950Z,4.05
2019-01-02T10:20:02.015Z,4.07
2019-01-02T10:22:46.099Z,4.18
2019-01-02T10:25:42.679Z,4.19
2019-01-02T10:28:41.947Z,4.19
2019-01-02T10:31:36.521Z,4.22
2019-01-02T10:34:14.265Z,4.29
2019-01-02T10:36:45.949Z,4.24
2019-01-02T10:39:30.255Z,4.29
2019-01-02T10:42:17.109Z,4.23
2019-01-02T10:45:03.811Z,4.25
2019-01-02T10:47:50.239Z,4.33
2019-01-02T10:50:25.303Z,4.44
2019-01-02T10:53:10.597Z,4.38
2019-01-02T10:55:54.381Z,4.42
2019-01-02T10:58:51.711Z,4.44
2019-01-02T11:01:59.146Z,4.49
2019-01-02T11:04:44.686Z,4.50
2019-01-02T11:07:37.345Z,4.51
2019-01-02T11:10:11.472Z,4.48
2019-01-02T11:13:02.916Z,4.52
2019-01-02T11:15:37.607Z,4.53
2019-01-02T11:18:12.648Z,4.55
2019-01-02T11:20:56.465Z,4.66
2019-01-02T11:23:42.975Z,4.57
2019-01-02T11:26:35.836Z,4.65
2019-01-02T11:29:25.400Z,4.72
2019-01-02T11:32:06.410Z,4.73
2019-01-02T11:34:38.762Z,4.60
2019-01-02T11:37:13.058Z,4.73
2019-01-02T11:40:04.348Z,4.78
2019-01-02T11:42:54.951Z,4.82
2019-01-02T11:45:24.591Z,4.87
2019-01-02T11:47:53.019Z,4.87
2019-01-02T11:50:24.480Z,4.92
2019-01-02T11:52:55.013Z,5.01
2019-01-02T11:55:26.128Z,5.02
2019-01-02T11:57:54.668Z,5.04
2019-01-02T12:00:23.192Z,5.07
2019-01-02T12:02:51.955Z,5.01
2019-01-02T12:05:21.737Z,4.99
2019-01-02T12:07:50.511Z,4.91
2019-01-02T12:10:19.416Z,4.96
2019-01-02T12:12:47.837Z,4.95
2019-01-02T12:15:16.919Z,4.95
2019-01-02T12:17:46.470Z,4.91
2019-01-02T12:20:16.167Z,4.88
2019-01-02T12:22:47.836Z,4.96
2019-01-02T12:25:16.270Z,4.90
2019-01-02T12:27:44.731Z,4.84
2019-01-02T12:30:13.727Z,4.84
2019-01-02T12:32:42.250Z,4.84
2019-01-02T12:35:10.710Z,4.80
2019-01-02T12:37:39.271Z,4.85
2019-01-02T12:40:08.112Z,4.90
2019-01-02T12:42:36.473Z,4.84
2019-01-02T12:45:06.417Z,4.80
2019-01-02T12:47:34.770Z,4.70
2019-01-02T12:50:04.188Z,4.67
2019-01-02T12:52:32.613Z,4.69
2019-01-02T12:55:00.995Z,4.72
2019-01-02T12:57:29.458Z,4.70
2019-01-02T12:59:58.988Z,4.66
2019-01-02T13:02:51.922Z,4.64
2019-01-02T13:05:57.642Z,4.60
2019-01-02T13:09:01.216Z,4.53
2019-01-02T13:11:36.165Z,4.59
2019-01-02T13:14:16.902Z,4.62
2019-01-02T13:16:54.377Z,4.72
2019-01-02T13:19:37.798Z,4.71
2019-01-02T13:22:12.494Z,4.71
2019-01-02T13:24:46.919Z,4.72
2019-01-02T13:27:21.461Z,4.75
2019-01-02T13:30:07.397Z,4.76
2019-01-02T13:33:00.358Z,4.82
2019-01-02T13:35:34.588Z,4.80
2019-01-02T13:38:21.688Z,4.79
2019-01-02T13:41:03.448Z,4.81
2019-01-02T13:43:38.041Z,4.82
2019-01-02T13:46:18.374Z,4.86
2019-01-02T13:49:00.961Z,4.80
2019-01-02T13:51:29.847Z,4.89
2019-01-02T13:53:58.433Z,4.74
2019-01-02T13:56:27.242Z,4.70
2019-01-02T13:58:57.172Z,4.67
2019-01-02T14:01:25.587Z,4.72
2019-01-02T14:03:54.917Z,4.74
2019-01-02T14:06:23.866Z,4.69
2019-01-02T14:08:52.772Z,4.70
2019-01-02T14:11:22.084Z,4.61
2019-01-02T14:13:51.264Z,4.70
2019-01-02T14:16:19.867Z,4.70
2019-01-02T14:18:48.685Z,4.64
2019-01-02T14:21:17.210Z,4.68
2019-01-02T14:23:45.756Z,4.71
2019-01-02T14:26:14.351Z,4.66
2019-01-02T14:28:43.175Z,4.60
2019-01-02T14:31:13.265Z,4.55
2019-01-02T14:33:42.285Z,4.49
2019-01-02T14:36:11.059Z,4.47
2019-01-02T14:38:41.430Z,4.48
2019-01-02T14:41:10.155Z,4.62
2019-01-02T14:43:38.696Z,4.74
2019-01-02T14:46:07.148Z,4.74
2019-01-02T14:48:35.873Z,4.79
2019-01-02T14:51:04.302Z,4.88
2019-01-02T14:53:33.500Z,4.79
2019-01-02T14:56:02.019Z,4.50
2019-01-02T14:58:30.695Z,4.79
2019-01-02T15:00:59.230Z,4.74
2019-01-02T15:03:27.692Z,4.63
2019-01-02T15:05:56.203Z,4.63
2019-01-02T15:08:24.598Z,4.57
2019-01-02T15:10:53.034Z,4.59
2019-01-02T15:13:21.432Z,4.58
2019-01-02T15:15:49.811Z,4.49
2019-01-02T15:18:18.332Z,4.51
2019-01-02T15:20:46.668Z,4.50
2019-01-02T15:23:20.148Z,4.48
2019-01-02T15:25:48.574Z,4.50
2019-01-02T15:28:17.047Z,4.43
2019-01-02T15:30:45.471Z,4.44
2019-01-02T15:33:13.939Z,4.47
2019-01-02T15:35:42.530Z,4.43
2019-01-02T15:38:10.955Z,4.49
2019-01-02T15:40:39.360Z,4.43
2019-01-02T15:43:07.865Z,4.40
2019-01-02T15:45:36.279Z,4.42
2019-01-02T15:48:04.725Z,4.39
2019-01-02T15:50:33.372Z,4.37
2019-01-02T15:53:01.738Z,4.33
2019-01-02T15:55:30.205Z,4.27
2019-01-02T15:57:58.609Z,4.20
2019-01-02T16:00:27.066Z,4.13
2019-01-02T16:02:55.428Z,4.10
2019-01-02T16:05:24.136Z,4.11
2019-01-02T16:07:52.828Z,4.08
2019-01-02T16:10:21.279Z,4.05
2019-01-02T16:12:49.661Z,3.97
2019-01-02T16:15:18.254Z,3.97
2019-01-02T16:17:47.000Z,3.98
2019-01-02T16:20:15.688Z,3.93
2019-01-02T16:22:44.126Z,3.83
2019-01-02T16:25:12.657Z,3.80
2019-01-02T16:27:41.124Z,3.72
2019-01-02T16:30:09.556Z,3.65
2019-01-02T16:32:38.123Z,3.60
2019-01-02T16:35:06.598Z,3.52
2019-01-02T16:37:35.029Z,3.46
2019-01-02T16:40:04.439Z,3.49
2019-01-02T16:42:33.097Z,3.48
2019-01-02T16:45:01.647Z,3.52
2019-01-02T16:47:30.226Z,3.37
2019-01-02T16:49:58.607Z,3.12
2019-01-02T16:52:28.426Z,3.21
2019-01-02T16:54:56.919Z,3.01
2019-01-02T16:57:27.127Z,2.98
2019-01-02T16:59:57.381Z,3.01
2019-01-02T17:02:26.378Z,2.99
2019-01-02T17:04:54.842Z,2.84
2019-01-02T17:07:26.178Z,2.67
2019-01-02T17:09:56.350Z,2.42
2019-01-02T17:12:25.085Z,2.18
2019-01-02T17:14:54.490Z,2.37
2019-01-02T17:17:26.618Z,2.48
2019-01-02T17:19:55.439Z,2.26
2019-01-02T17:22:24.068Z,2.25
2019-01-02T17:24:54.494Z,1.99
2019-01-02T17:27:23.060Z,1.92
2019-01-02T17:29:54.179Z,1.94
2019-01-02T17:32:24.138Z,1.92
2019-01-02T17:34:52.613Z,1.75
2019-01-02T17:37:25.712Z,1.50
2019-01-02T17:39:59.324Z,1.64
2019-01-02T17:42:28.443Z,1.59
2019-01-02T17:44:59.728Z,1.61
2019-01-02T17:47:34.085Z,1.47
2019-01-02T17:50:04.643Z,1.56
2019-01-02T17:52:34.787Z,1.64
2019-01-02T17:55:05.635Z,1.68
2019-01-02T17:57:34.378Z,1.74
2019-01-02T18:00:03.332Z,1.85
2019-01-02T18:02:32.285Z,1.88
2019-01-02T18:05:01.253Z,1.91
2019-01-02T18:07:30.069Z,1.43
2019-01-02T18:09:58.621Z,1.48
2019-01-02T18:12:27.381Z,1.57
2019-01-02T18:14:55.764Z,1.65
2019-01-02T18:17:25.033Z,1.78
2019-01-02T18:19:55.034Z,1.81
2019-01-02T18:22:25.424Z,1.75
2019-01-02T18:24:54.320Z,1.35
2019-01-02T18:27:27.932Z,1.17
2019-01-02T18:29:58.076Z,1.11
2019-01-02T18:32:28.270Z,1.05
2019-01-02T18:34:57.029Z,0.79
2019-01-02T18:37:25.428Z,0.59
2019-01-02T18:39:54.383Z,0.17
2019-01-02T18:42:23.158Z,0.16
2019-01-02T18:44:51.764Z,0.14
2019-01-02T18:47:21.287Z,0.06
2019-01-02T18:49:50.073Z,0.09
2019-01-02T18:52:19.069Z,0.14
2019-01-02T18:54:47.469Z,0.15
2019-01-02T18:57:16.153Z,0.35
2019-01-02T18:59:44.569Z,0.37
2019-01-02T19:02:13.420Z,0.60
2019-01-02T19:04:41.970Z,0.52
2019-01-02T19:07:10.337Z,0.59
2019-01-02T19:09:38.729Z,0.43
2019-01-02T19:12:07.086Z,0.44
2019-01-02T19:14:35.562Z,0.34
2019-01-02T19:17:03.920Z,0.36
2019-01-02T19:19:32.326Z,0.12
2019-01-02T19:22:00.686Z,-0.38
2019-01-02T19:24:29.185Z,-0.15
2019-01-02T19:26:57.558Z,-0.29
2019-01-02T19:29:25.970Z,-0.38
2019-01-02T19:31:54.336Z,-0.29
2019-01-02T19:34:22.742Z,-0.40
2019-01-02T19:36:51.115Z,-0.39
2019-01-02T19:39:20.253Z,-0.36
2019-01-02T19:41:48.758Z,-0.40
2019-01-02T19:44:17.157Z,-0.05
2019-01-02T19:46:45.513Z,0.09
2019-01-02T19:49:14.263Z,-0.39
2019-01-02T19:51:45.370Z,-0.48
2019-01-02T19:54:13.840Z,-0.70
2019-01-02T19:56:48.705Z,-0.89
2019-01-02T19:59:17.176Z,-0.72
2019-01-02T20:01:45.543Z,-0.75
2019-01-02T20:04:13.948Z,-0.83
2019-01-02T20:06:42.854Z,-0.62
2019-01-02T20:09:11.341Z,-0.46
2019-01-02T20:11:39.701Z,-0.51
2019-01-02T20:14:08.167Z,-0.62
2019-01-02T20:16:36.667Z,-0.48
2019-01-02T20:19:06.537Z,-0.35
2019-01-02T20:21:34.939Z,-0.35
2019-01-02T20:24:03.983Z,-0.26
2019-01-02T20:26:45.000Z,-0.36
2019-01-02T20:29:15.146Z,-0.60
2019-01-02T20:31:43.536Z,-0.77
2019-01-02T20:34:12.421Z,-0.69
2019-01-02T20:36:41.014Z,-0.48
2019-01-02T20:39:09.995Z,-0.59
2019-01-02T20:41:40.113Z,-0.67
2019-01-02T20:44:08.891Z,-0.62
2019-01-02T20:46:38.246Z,-0.49
2019-01-02T20:49:06.758Z,-0.40
2019-01-02T20:51:35.304Z,-0.70
2019-01-02T20:54:04.804Z,-0.57
2019-01-02T20:56:36.279Z,-0.75
2019-01-02T20:59:04.805Z,-0.75
2019-01-02T21:01:33.788Z,-0.69
2019-01-02T21:04:03.285Z,-0.69
2019-01-02T21:06:33.206Z,-0.75
2019-01-02T21:09:02.970Z,-0.74
2019-01-02T21:11:35.032Z,-0.73
2019-01-02T21:14:03.495Z,-0.65
2019-01-02T21:16:32.318Z,-0.68
2019-01-02T21:19:00.860Z,-0.46
2019-01-02T21:21:30.269Z,-0.74
2019-01-02T21:23:59.030Z,-1.07
2019-01-02T21:26:27.502Z,-1.08
2019-01-02T21:28:57.136Z,-1.09
2019-01-02T21:31:27.046Z,-1.19
2019-01-02T21:33:55.503Z,-1.07
2019-01-02T21:36:28.740Z,-1.02
2019-01-02T21:38:59.623Z,-0.70
2019-01-02T21:41:28.563Z,-0.72
2019-01-02T21:43:57.340Z,-0.68
2019-01-02T21:46:26.191Z,-0.61
2019-01-02T21:48:54.630Z,-0.57
2019-01-02T21:51:23.106Z,-0.49
2019-01-02T21:53:51.476Z,-0.51
2019-01-02T21:56:20.265Z,-0.40
2019-01-02T21:58:50.339Z,-0.28
2019-01-02T22:01:18.821Z,-0.13
2019-01-02T22:03:47.183Z,0.03
2019-01-02T22:06:15.554Z,0.05
2019-01-02T22:08:43.952Z,0.07
2019-01-02T22:11:12.325Z,0.06
2019-01-02T22:13:40.915Z,0.18
2019-01-02T22:16:09.302Z,0.27
2019-01-02T22:18:39.844Z,0.35
2019-01-02T22:21:08.733Z,0.27
2019-01-02T22:23:37.810Z,0.21
2019-01-02T22:26:06.323Z,-0.05
2019-01-02T22:28:35.534Z,0.05
2019-01-02T22:31:04.699Z,0.19
2019-01-02T22:33:36.698Z,0.22
2019-01-02T22:36:05.939Z,0.22
2019-01-02T22:38:34.928Z,-0.12
2019-01-02T22:41:03.758Z,-0.10
2019-01-02T22:43:32.531Z,0.02
2019-01-02T22:46:01.103Z,0.02
2019-01-02T22:48:29.929Z,0.04
2019-01-02T22:50:58.567Z,0.15
2019-01-02T22:53:30.048Z,0.09
2019-01-02T22:55:58.691Z,0.05
2019-01-02T22:58:27.632Z,0.04
2019-01-02T23:01:07.344Z,0.10
2019-01-02T23:03:53.554Z,-0.05
2019-01-02T23:06:26.352Z,-0.01
2019-01-02T23:09:11.648Z,-0.04
2019-01-02T23:11:53.722Z,0.01
2019-01-02T23:14:23.999Z,0.20
2019-01-02T23:16:54.424Z,0.12
2019-01-02T23:19:24.571Z,0.04
2019-01-02T23:21:59.280Z,0.15
2019-01-02T23:24:38.333Z,0.25
2019-01-02T23:27:14.666Z,0.37
2019-01-02T23:30:01.524Z,0.36
2019-01-02T23:32:40.854Z,0.23
2019-01-02T23:35:10.975Z,0.34
2019-01-02T23:37:43.453Z,0.27
2019-01-02T23:40:16.043Z,0.32
2019-01-02T23:42:58.562Z,0.44
2019-01-02T23:45:44.658Z,0.34
2019-01-02T23:48:23.674Z,0.36
2019-01-02T23:51:05.869Z,0.35
2019-01-02T23:53:36.124Z,0.33
2019-01-02T23:56:21.455Z,0.39
2019-01-02T23:58:55.782Z,0.44
